Weather Data

Pearl Creek Farm: 8878 N Farm Road 75, Walnut Grove MO 65770

<== Previous Day (Sunday 12 Jan 2014) | Next Day (Tuesday 14 Jan 2014) ==>

Summary Precipitation Data For Monday 13 January 2014

ElementValueUnits
Precipitation0"
New Snow Depth0"
New Snow Water Equivalent0"
Total Snow DepthT
Total Snow Water Equivalent*0"
NotesStill a small amount of snow on the ground in a few places.
SourcePearl Creek Farm

* Total Snow Water Equivalent is not measured every day.

Summary Temperature Data For Monday 13 January 2014

ElementValueUnits
High Temperature54 oF
Low Temperature30 oF
Average Temperature44 oF
High Humidity84 %
Low Humidity49 %
Average Humidity68 %
SourcePearl Creek Farm

Detail Temperature Data For Monday 13 January 2014

Date / TimeTemp (F)RH (%)Dew Pt (F)Report Date / TimeSource
2014-01-13 00:00:00 51 58 36.6 2014-02-09 14:43:36 Pearl Creek Farm
2014-01-13 00:30:00 53 60 39.5 2014-02-09 14:43:36 Pearl Creek Farm
2014-01-13 01:00:00 53 61 39.9 2014-02-09 14:43:36 Pearl Creek Farm
2014-01-13 01:30:00 52 64 40.0 2014-02-09 14:43:36 Pearl Creek Farm
2014-01-13 02:00:00 53 66 42.0 2014-02-09 14:43:36 Pearl Creek Farm
2014-01-13 02:30:00 53 68 42.7 2014-02-09 14:43:36 Pearl Creek Farm
2014-01-13 03:00:00 54 66 42.9 2014-02-09 14:43:36 Pearl Creek Farm
2014-01-13 03:30:00 51 67 40.4 2014-02-09 14:43:36 Pearl Creek Farm
2014-01-13 04:00:00 49 65 37.8 2014-02-09 14:43:36 Pearl Creek Farm
2014-01-13 04:30:00 46 67 35.7 2014-02-09 14:43:36 Pearl Creek Farm
2014-01-13 05:00:00 44 69 34.3 2014-02-09 14:43:36 Pearl Creek Farm
2014-01-13 05:30:00 42 70 33.0 2014-02-09 14:43:36 Pearl Creek Farm
2014-01-13 06:00:00 42 71 33.3 2014-02-09 14:43:36 Pearl Creek Farm
2014-01-13 06:30:00 41 73 32.9 2014-02-09 14:43:36 Pearl Creek Farm
2014-01-13 07:00:00 40 75 32.6 2014-02-09 14:43:36 Pearl Creek Farm
2014-01-13 07:30:00 37 76 30.2 2014-02-09 14:43:36 Pearl Creek Farm
2014-01-13 08:00:00 36 79 30.0 2014-02-09 14:43:36 Pearl Creek Farm
2014-01-13 08:30:00 37 81 31.7 2014-02-09 14:43:36 Pearl Creek Farm
2014-01-13 09:00:00 39 80 33.4 2014-02-09 14:43:36 Pearl Creek Farm
2014-01-13 09:30:00 42 77 35.3 2014-02-09 14:43:36 Pearl Creek Farm
2014-01-13 10:00:00 44 76 36.9 2014-02-09 14:43:36 Pearl Creek Farm
2014-01-13 10:30:00 46 73 37.7 2014-02-09 14:43:36 Pearl Creek Farm
2014-01-13 11:00:00 49 69 39.3 2014-02-09 14:43:36 Pearl Creek Farm
2014-01-13 11:30:00 49 66 38.0 2014-02-09 14:43:36 Pearl Creek Farm
2014-01-13 12:00:00 49 65 37.8 2014-02-09 14:43:36 Pearl Creek Farm
2014-01-13 12:30:00 51 60 37.4 2014-02-09 14:43:36 Pearl Creek Farm
2014-01-13 13:00:00 52 57 37.3 2014-02-09 14:43:36 Pearl Creek Farm
2014-01-13 13:30:00 52 56 36.6 2014-02-09 14:43:36 Pearl Creek Farm
2014-01-13 14:00:00 52 53 35.4 2014-02-09 14:43:36 Pearl Creek Farm
2014-01-13 14:30:00 52 53 35.4 2014-02-09 14:43:36 Pearl Creek Farm
2014-01-13 15:00:00 52 49 33.5 2014-02-09 14:43:36 Pearl Creek Farm
2014-01-13 15:30:00 52 50 33.7 2014-02-09 14:43:36 Pearl Creek Farm
2014-01-13 16:00:00 51 50 32.8 2014-02-09 14:43:36 Pearl Creek Farm
2014-01-13 16:30:00 50 50 32.1 2014-02-09 14:43:36 Pearl Creek Farm
2014-01-13 17:00:00 49 53 32.4 2014-02-09 14:43:36 Pearl Creek Farm
2014-01-13 17:30:00 46 59 32.5 2014-02-09 14:43:36 Pearl Creek Farm
2014-01-13 18:00:00 43 64 31.5 2014-02-09 14:43:36 Pearl Creek Farm
2014-01-13 18:30:00 39 67 28.8 2014-02-09 14:43:36 Pearl Creek Farm
2014-01-13 19:00:00 36 72 27.9 2014-02-09 14:43:36 Pearl Creek Farm
2014-01-13 19:30:00 34 75 26.9 2014-02-09 14:43:36 Pearl Creek Farm
2014-01-13 20:00:00 33 76 26.3 2014-02-09 14:43:36 Pearl Creek Farm
2014-01-13 20:30:00 32 77 25.6 2014-02-09 14:43:36 Pearl Creek Farm
2014-01-13 21:00:00 32 80 26.6 2014-02-09 14:43:36 Pearl Creek Farm
2014-01-13 21:30:00 31 82 26.2 2014-02-09 14:43:36 Pearl Creek Farm
2014-01-13 22:00:00 31 81 25.7 2014-02-09 14:43:36 Pearl Creek Farm
2014-01-13 22:30:00 31 83 26.5 2014-02-09 14:43:36 Pearl Creek Farm
2014-01-13 23:00:00 30 84 25.6 2014-02-09 14:43:36 Pearl Creek Farm
2014-01-13 23:30:00 31 84 26.8 2014-02-09 14:43:36 Pearl Creek Farm

A total of 48 rows are displayed.